createdAt,value
2022-11-17T00:00:43.251Z,99830.00
2022-11-17T00:03:16.229Z,99841.00
2022-11-17T00:05:44.740Z,99835.00
2022-11-17T00:08:12.094Z,99841.00
2022-11-17T00:10:39.084Z,99826.00
2022-11-17T00:13:24.934Z,99836.00
2022-11-17T00:15:51.871Z,99835.00
2022-11-17T00:18:37.337Z,99846.00
2022-11-17T00:21:21.411Z,99842.00
2022-11-17T00:23:50.339Z,99837.00
2022-11-17T00:26:27.548Z,99840.00
2022-11-17T00:28:57.498Z,99835.00
2022-11-17T00:31:44.929Z,99837.00
2022-11-17T00:34:17.136Z,99842.00
2022-11-17T00:36:50.492Z,99837.00
2022-11-17T00:39:22.533Z,99837.00
2022-11-17T00:41:50.110Z,99833.00
2022-11-17T00:44:17.636Z,99844.00
2022-11-17T00:46:45.035Z,99852.00
2022-11-17T00:49:13.085Z,99854.00
2022-11-17T00:51:40.334Z,99856.00
2022-11-17T00:54:11.566Z,99861.00
2022-11-17T00:56:38.948Z,99848.00
2022-11-17T00:59:05.999Z,99859.00
2022-11-17T01:01:33.150Z,99856.00
2022-11-17T01:04:04.374Z,99862.00
2022-11-17T01:06:50.174Z,99868.00
2022-11-17T01:09:23.286Z,99859.00
2022-11-17T01:11:52.598Z,99848.00
2022-11-17T01:14:28.387Z,99840.00
2022-11-17T01:16:56.121Z,99828.00
2022-11-17T01:19:24.833Z,99802.00
2022-11-17T01:21:52.112Z,99819.00
2022-11-17T01:24:19.129Z,99833.00
2022-11-17T01:26:46.784Z,99830.00
2022-11-17T01:29:18.865Z,99826.00
2022-11-17T01:31:50.592Z,99824.00
2022-11-17T01:34:17.973Z,99825.00
2022-11-17T01:37:03.776Z,99717.00
2022-11-17T01:39:32.159Z,99817.00
2022-11-17T01:42:05.277Z,99826.00
2022-11-17T01:44:55.003Z,99830.00
2022-11-17T01:47:55.220Z,99819.00
2022-11-17T01:50:41.578Z,99806.00
2022-11-17T01:56:11.109Z,99813.00
2022-11-17T01:58:45.706Z,99819.00
2022-11-17T02:01:12.772Z,99817.00
2022-11-17T02:03:41.570Z,99806.00
2022-11-17T02:06:17.156Z,99807.00
2022-11-17T02:08:47.078Z,99806.00
2022-11-17T02:11:19.530Z,99812.00
2022-11-17T02:13:48.180Z,99802.00
2022-11-17T02:16:17.180Z,99808.00
2022-11-17T02:18:46.411Z,99809.00
2022-11-17T02:21:56.428Z,99801.00
2022-11-17T02:24:38.328Z,99793.00
2022-11-17T02:27:32.883Z,99796.00
2022-11-17T02:30:12.326Z,99800.00
2022-11-17T02:32:52.523Z,99799.00
2022-11-17T02:35:54.685Z,99796.00
2022-11-17T02:38:39.177Z,99683.00
2022-11-17T02:41:34.712Z,99798.00
2022-11-17T02:55:35.803Z,99789.00
2022-11-17T02:58:02.722Z,99799.00
2022-11-17T03:00:35.048Z,99795.00
2022-11-17T03:03:45.291Z,99795.00
2022-11-17T03:06:30.229Z,99785.00
2022-11-17T03:09:18.668Z,99790.00
2022-11-17T03:11:57.423Z,99783.00
2022-11-17T03:15:15.324Z,99780.00
2022-11-17T03:18:05.792Z,99780.00
2022-11-17T03:20:54.027Z,99786.00
2022-11-17T03:23:49.864Z,99794.00
2022-11-17T03:26:31.154Z,99785.00
2022-11-17T03:29:02.070Z,99782.00
2022-11-17T03:31:32.813Z,99769.00
2022-11-17T03:34:03.568Z,99775.00
2022-11-17T03:36:40.029Z,99779.00
2022-11-17T03:39:24.019Z,99776.00
2022-11-17T03:42:01.985Z,99780.00
2022-11-17T03:44:34.937Z,99777.00
2022-11-17T03:47:05.010Z,99771.00
2022-11-17T03:49:52.762Z,99767.00
2022-11-17T03:52:20.712Z,99771.00
2022-11-17T03:54:48.182Z,99777.00
2022-11-17T03:57:34.930Z,99778.00
2022-11-17T04:00:10.962Z,99770.00
2022-11-17T04:02:43.113Z,99763.00
2022-11-17T04:05:12.011Z,99774.00
2022-11-17T04:07:46.877Z,99779.00
2022-11-17T04:10:19.991Z,99782.00
2022-11-17T04:13:09.043Z,99780.00
2022-11-17T04:15:55.094Z,99774.00
2022-11-17T04:18:23.548Z,99777.00
2022-11-17T04:20:56.814Z,99784.00
2022-11-17T04:23:25.821Z,99759.00
2022-11-17T04:26:14.634Z,99767.00
2022-11-17T04:28:47.426Z,99784.00
2022-11-17T04:31:28.216Z,99779.00
2022-11-17T04:34:01.303Z,99780.00
2022-11-17T04:36:32.521Z,99784.00
2022-11-17T04:39:01.037Z,99769.00
2022-11-17T04:41:48.842Z,99772.00
2022-11-17T04:44:17.880Z,99773.00
2022-11-17T04:46:48.873Z,99767.00
2022-11-17T04:49:18.360Z,99767.00
2022-11-17T04:51:46.568Z,99769.00
2022-11-17T04:54:17.015Z,99763.00
2022-11-17T04:56:45.093Z,99765.00
2022-11-17T04:59:12.341Z,99753.00
2022-11-17T05:01:39.346Z,99756.00
2022-11-17T05:04:35.678Z,99755.00
2022-11-17T05:07:05.381Z,99760.00
2022-11-17T05:09:32.516Z,99742.00
2022-11-17T05:12:18.405Z,99762.00
2022-11-17T05:14:47.659Z,99753.00
2022-11-17T05:17:14.609Z,99750.00
2022-11-17T05:19:47.536Z,99756.00
2022-11-17T05:22:35.862Z,99770.00
2022-11-17T05:25:04.205Z,99764.00
2022-11-17T05:27:31.268Z,99758.00
2022-11-17T05:29:58.230Z,99764.00
2022-11-17T05:32:25.253Z,99754.00
2022-11-17T05:34:52.197Z,99748.00
2022-11-17T05:37:19.224Z,99748.00
2022-11-17T05:39:46.239Z,99749.00
2022-11-17T05:42:13.193Z,99752.00
2022-11-17T05:44:40.203Z,99746.00
2022-11-17T05:47:07.364Z,99749.00
2022-11-17T05:49:34.325Z,99752.00
2022-11-17T05:52:01.272Z,99752.00
2022-11-17T05:54:28.240Z,99757.00
2022-11-17T05:57:09.562Z,99760.00
2022-11-17T05:59:55.147Z,99756.00
2022-11-17T06:02:33.855Z,99766.00
2022-11-17T06:05:01.996Z,99762.00
2022-11-17T06:07:29.139Z,99759.00
2022-11-17T06:09:57.221Z,99769.00
2022-11-17T06:12:24.259Z,99765.00
2022-11-17T06:14:51.229Z,99773.00
2022-11-17T06:17:35.670Z,99773.00
2022-11-17T06:20:28.114Z,99767.00
2022-11-17T06:23:00.378Z,99766.00
2022-11-17T06:25:29.123Z,99768.00
2022-11-17T06:27:57.887Z,99777.00
2022-11-17T06:30:24.826Z,99774.00
2022-11-17T06:32:53.534Z,99769.00
2022-11-17T06:35:20.681Z,99767.00
2022-11-17T06:37:47.624Z,99765.00
2022-11-17T06:40:15.370Z,99758.00
2022-11-17T06:43:01.513Z,99764.00
2022-11-17T06:45:28.461Z,99758.00
2022-11-17T06:47:55.593Z,99760.00
2022-11-17T06:50:22.680Z,99761.00
2022-11-17T06:52:49.546Z,99751.00
2022-11-17T06:55:16.596Z,99756.00
2022-11-17T06:57:46.546Z,99759.00
2022-11-17T07:00:16.427Z,99758.00
2022-11-17T07:02:43.595Z,99758.00
2022-11-17T07:05:10.526Z,99766.00
2022-11-17T07:07:37.494Z,99762.00
2022-11-17T07:10:04.765Z,99768.00
2022-11-17T07:12:33.285Z,99767.00
2022-11-17T07:15:00.248Z,99761.00
2022-11-17T07:17:27.346Z,99768.00
2022-11-17T07:19:54.949Z,99759.00
2022-11-17T07:22:21.881Z,99759.00
2022-11-17T07:24:48.776Z,99752.00
2022-11-17T07:27:15.739Z,99766.00
2022-11-17T07:29:42.696Z,99759.00
2022-11-17T07:32:13.861Z,99767.00
2022-11-17T07:34:44.276Z,99765.00
2022-11-17T07:37:11.219Z,99776.00
2022-11-17T07:39:38.168Z,99775.00
2022-11-17T07:42:05.141Z,99772.00
2022-11-17T07:44:32.260Z,99777.00
2022-11-17T07:47:02.078Z,99778.00
2022-11-17T07:49:29.464Z,99759.00
2022-11-17T07:51:56.426Z,99776.00
2022-11-17T07:54:23.385Z,99764.00
2022-11-17T07:56:50.402Z,99769.00
2022-11-17T07:59:21.366Z,99773.00
2022-11-17T08:01:48.678Z,99773.00
2022-11-17T08:04:16.018Z,99776.00
2022-11-17T08:06:42.927Z,99754.00
2022-11-17T08:09:10.748Z,99770.00
2022-11-17T08:11:37.703Z,99765.00
2022-11-17T08:14:04.691Z,99756.00
2022-11-17T08:16:32.137Z,99762.00
2022-11-17T08:18:59.635Z,99748.00
2022-11-17T08:21:26.625Z,99764.00
2022-11-17T08:23:55.140Z,99769.00
2022-11-17T08:26:25.315Z,99759.00
2022-11-17T08:28:57.884Z,99757.00
2022-11-17T08:31:25.527Z,99770.00
2022-11-17T08:33:52.462Z,99763.00
2022-11-17T08:36:19.343Z,99757.00
2022-11-17T08:38:46.293Z,99772.00
2022-11-17T08:41:13.252Z,99765.00
2022-11-17T08:43:40.143Z,99772.00
2022-11-17T08:46:12.910Z,99771.00
2022-11-17T08:48:40.712Z,99766.00
2022-11-17T08:51:09.524Z,99771.00
2022-11-17T08:53:39.389Z,99777.00
2022-11-17T08:56:12.384Z,99779.00
2022-11-17T08:58:43.399Z,99750.00
2022-11-17T09:01:15.527Z,99777.00
2022-11-17T09:03:44.887Z,99774.00
2022-11-17T09:06:13.605Z,99773.00
2022-11-17T09:08:48.121Z,99774.00
2022-11-17T09:11:16.726Z,99783.00
2022-11-17T09:13:45.660Z,99780.00
2022-11-17T09:16:12.850Z,99785.00
2022-11-17T09:18:41.470Z,99779.00
2022-11-17T09:21:15.626Z,99774.00
2022-11-17T09:23:43.637Z,99756.00
2022-11-17T09:26:14.738Z,99779.00
2022-11-17T09:28:42.731Z,99782.00
2022-11-17T09:31:16.396Z,99768.00
2022-11-17T09:33:44.619Z,99777.00
2022-11-17T09:36:14.872Z,99770.00
2022-11-17T09:38:42.455Z,99760.00
2022-11-17T09:41:48.111Z,99767.00
2022-11-17T09:44:34.497Z,99773.00
2022-11-17T09:47:35.989Z,99753.00
2022-11-17T09:50:24.576Z,99755.00
2022-11-17T09:53:00.511Z,99749.00
2022-11-17T09:55:40.574Z,99751.00
2022-11-17T09:58:14.749Z,99741.00
2022-11-17T10:00:48.774Z,99731.00
2022-11-17T10:03:42.056Z,99735.00
2022-11-17T10:06:19.238Z,99735.00
2022-11-17T10:09:01.320Z,99734.00
2022-11-17T10:11:37.245Z,99738.00
2022-11-17T10:14:13.618Z,99731.00
2022-11-17T10:16:59.355Z,99710.00
2022-11-17T10:19:34.513Z,99727.00
2022-11-17T10:22:05.303Z,99724.00
2022-11-17T10:24:35.139Z,99723.00
2022-11-17T10:27:05.439Z,99726.00
2022-11-17T10:29:32.925Z,99716.00
2022-11-17T10:32:05.687Z,99701.00
2022-11-17T10:34:41.175Z,99727.00
2022-11-17T10:37:32.034Z,99719.00
2022-11-17T10:40:39.871Z,99720.00
2022-11-17T10:43:12.806Z,99726.00
2022-11-17T10:45:51.771Z,99722.00
2022-11-17T10:48:33.532Z,99721.00
2022-11-17T10:51:23.250Z,99724.00
2022-11-17T10:54:16.089Z,99711.00
2022-11-17T10:57:00.073Z,99695.00
2022-11-17T10:59:44.319Z,99720.00
2022-11-17T11:02:37.058Z,99703.00
2022-11-17T11:05:18.007Z,99711.00
2022-11-17T11:07:45.615Z,99700.00
2022-11-17T11:10:34.502Z,99693.00
2022-11-17T11:13:27.348Z,99703.00
2022-11-17T11:15:54.443Z,99680.00
2022-11-17T11:18:22.103Z,99694.00
2022-11-17T11:21:23.271Z,99702.00
2022-11-17T11:24:11.111Z,99705.00
2022-11-17T11:27:23.141Z,99697.00
2022-11-17T11:30:25.483Z,99690.00
2022-11-17T11:33:37.915Z,99697.00
2022-11-17T11:36:42.641Z,99698.00
2022-11-17T11:39:52.993Z,99685.00
2022-11-17T11:42:55.962Z,99692.00
2022-11-17T11:45:42.745Z,99689.00
2022-11-17T11:48:33.724Z,99684.00
2022-11-17T11:51:29.525Z,99681.00
2022-11-17T11:54:10.173Z,99673.00
2022-11-17T11:56:44.207Z,99667.00
2022-11-17T12:00:00.891Z,99665.00
2022-11-17T12:02:51.638Z,99660.00
2022-11-17T12:05:54.603Z,99664.00
2022-11-17T12:08:35.387Z,99634.00
2022-11-17T12:11:34.787Z,99655.00
2022-11-17T12:14:05.888Z,99649.00
2022-11-17T12:16:36.420Z,99662.00
2022-11-17T12:20:09.173Z,99654.00
2022-11-17T12:22:37.508Z,99649.00
2022-11-17T12:25:21.989Z,99653.00
2022-11-17T12:27:55.179Z,99651.00
2022-11-17T12:30:31.177Z,99661.00
2022-11-17T12:33:00.657Z,99654.00
2022-11-17T12:35:37.256Z,99648.00
2022-11-17T12:38:19.926Z,99649.00
2022-11-17T12:40:51.598Z,99648.00
2022-11-17T12:43:26.091Z,99638.00
2022-11-17T12:45:55.611Z,99634.00
2022-11-17T12:48:36.145Z,99630.00
2022-11-17T12:51:27.709Z,99631.00
2022-11-17T12:54:22.559Z,99631.00
2022-11-17T12:57:34.483Z,99628.00
2022-11-17T13:00:07.484Z,99633.00
2022-11-17T13:03:22.067Z,99628.00
2022-11-17T13:06:34.369Z,99609.00
2022-11-17T13:09:06.082Z,99626.00
2022-11-17T13:11:33.979Z,99635.00
2022-11-17T13:14:14.617Z,99632.00
2022-11-17T13:16:51.162Z,99632.00
2022-11-17T13:19:32.833Z,99620.00
2022-11-17T13:22:05.766Z,99620.00
2022-11-17T13:24:39.800Z,99617.00
2022-11-17T13:27:38.020Z,99615.00
2022-11-17T13:30:31.498Z,99612.00
2022-11-17T13:33:02.245Z,99609.00
2022-11-17T13:35:32.348Z,99608.00
2022-11-17T13:38:11.566Z,99612.00
2022-11-17T13:40:42.373Z,99616.00
2022-11-17T13:43:18.333Z,99616.00
2022-11-17T13:45:47.173Z,99611.00
2022-11-17T13:48:37.082Z,99616.00
2022-11-17T13:51:35.047Z,99610.00
2022-11-17T13:54:04.740Z,99604.00
2022-11-17T13:56:40.811Z,99597.00
2022-11-17T13:59:39.001Z,99594.00
2022-11-17T14:02:20.501Z,99602.00
2022-11-17T14:05:10.695Z,99605.00
2022-11-17T14:07:39.420Z,99607.00
2022-11-17T14:10:21.626Z,99613.00
2022-11-17T14:13:20.512Z,99605.00
2022-11-17T14:15:57.818Z,99577.00
2022-11-17T14:18:37.328Z,99608.00
2022-11-17T14:21:17.237Z,99615.00
2022-11-17T14:23:45.210Z,99604.00
2022-11-17T14:26:24.895Z,99618.00
2022-11-17T14:28:53.064Z,99604.00
2022-11-17T14:31:20.224Z,99597.00
2022-11-17T14:33:47.271Z,99607.00
2022-11-17T14:36:17.961Z,99604.00
2022-11-17T14:38:46.616Z,99595.00
2022-11-17T14:41:18.663Z,99605.00
2022-11-17T14:43:46.622Z,99619.00
2022-11-17T14:46:26.816Z,99605.00
2022-11-17T14:48:55.496Z,99569.00
2022-11-17T14:51:22.918Z,99599.00
2022-11-17T14:53:50.638Z,99601.00
2022-11-17T14:56:21.192Z,99612.00
2022-11-17T14:58:54.186Z,99591.00
2022-11-17T15:01:28.621Z,99584.00
2022-11-17T15:04:15.330Z,99587.00
2022-11-17T15:06:48.395Z,99586.00
2022-11-17T15:09:16.466Z,99582.00
2022-11-17T15:11:43.596Z,99590.00
2022-11-17T15:14:11.548Z,99587.00
2022-11-17T15:16:38.528Z,99577.00
2022-11-17T15:19:06.731Z,99592.00
2022-11-17T15:21:33.940Z,99586.00
2022-11-17T15:24:03.828Z,99595.00
2022-11-17T15:26:31.385Z,99577.00
2022-11-17T15:28:58.673Z,99592.00
2022-11-17T15:31:25.869Z,99591.00
2022-11-17T15:33:52.999Z,99588.00
2022-11-17T15:36:23.042Z,99591.00
2022-11-17T15:38:50.414Z,99601.00
2022-11-17T15:41:17.456Z,99588.00
2022-11-17T15:43:45.640Z,99601.00
2022-11-17T15:46:18.227Z,99591.00
2022-11-17T15:48:49.118Z,99598.00
2022-11-17T15:51:19.665Z,99611.00
2022-11-17T15:53:48.988Z,99610.00
2022-11-17T16:07:56.546Z,99606.00
2022-11-17T16:10:23.508Z,99602.00
2022-11-17T16:12:51.461Z,99597.00
2022-11-17T16:15:18.659Z,99588.00
2022-11-17T16:17:45.745Z,99582.00
2022-11-17T16:20:13.009Z,99591.00
2022-11-17T16:22:40.102Z,99582.00
2022-11-17T16:25:10.583Z,99578.00
2022-11-17T16:27:37.669Z,99577.00
2022-11-17T16:30:05.401Z,99589.00
2022-11-17T16:32:32.521Z,99584.00
2022-11-17T16:34:59.754Z,99599.00
2022-11-17T16:37:26.685Z,99598.00
2022-11-17T16:39:55.105Z,99597.00
2022-11-17T16:42:22.086Z,99613.00
2022-11-17T16:44:49.115Z,99591.00
2022-11-17T16:47:16.191Z,99580.00
2022-11-17T16:49:45.733Z,99587.00
2022-11-17T16:52:16.074Z,99586.00
2022-11-17T16:54:43.022Z,99593.00
2022-11-17T16:57:10.144Z,99591.00
2022-11-17T16:59:37.182Z,99581.00
2022-11-17T17:02:04.276Z,99583.00
2022-11-17T17:04:31.301Z,99591.00
2022-11-17T17:06:58.621Z,99590.00
2022-11-17T17:09:28.010Z,99592.00
2022-11-17T17:11:55.389Z,99592.00
2022-11-17T17:14:22.615Z,99591.00
2022-11-17T17:16:49.994Z,99587.00
2022-11-17T17:19:17.116Z,99583.00
2022-11-17T17:21:45.505Z,99581.00
2022-11-17T17:24:13.024Z,99583.00
2022-11-17T17:26:40.689Z,99572.00
2022-11-17T17:29:08.495Z,99566.00
2022-11-17T17:31:39.246Z,99564.00
2022-11-17T17:34:07.814Z,99549.00
2022-11-17T17:36:37.217Z,99566.00
2022-11-17T17:39:05.759Z,99572.00
2022-11-17T17:41:39.258Z,99575.00
2022-11-17T17:44:11.267Z,99583.00
2022-11-17T17:46:39.028Z,99573.00
2022-11-17T17:49:07.168Z,99566.00
2022-11-17T17:51:39.982Z,99576.00
2022-11-17T17:54:09.981Z,99574.00
2022-11-17T17:56:36.926Z,99577.00
2022-11-17T17:59:03.949Z,99578.00
2022-11-17T18:01:36.925Z,99571.00
2022-11-17T18:04:05.154Z,99584.00
2022-11-17T18:06:45.963Z,99586.00
2022-11-17T18:09:15.473Z,99592.00
2022-11-17T18:11:46.121Z,99581.00
2022-11-17T18:14:13.597Z,99532.00
2022-11-17T18:16:41.042Z,99572.00
2022-11-17T18:19:09.800Z,99567.00
2022-11-17T18:21:37.136Z,99570.00
2022-11-17T18:24:04.845Z,99560.00
2022-11-17T18:26:37.175Z,99566.00
2022-11-17T18:29:16.661Z,99565.00
2022-11-17T18:31:47.233Z,99568.00
2022-11-17T18:34:18.954Z,99564.00
2022-11-17T18:36:46.182Z,99561.00
2022-11-17T18:39:17.782Z,99547.00
2022-11-17T18:41:45.650Z,99569.00
2022-11-17T18:44:15.153Z,99564.00
2022-11-17T18:46:42.164Z,99556.00
2022-11-17T18:49:09.774Z,99562.00
2022-11-17T18:51:36.772Z,99567.00
2022-11-17T18:54:04.838Z,99553.00
2022-11-17T18:56:35.596Z,99563.00
2022-11-17T18:59:11.389Z,99555.00
2022-11-17T19:01:41.264Z,99561.00
2022-11-17T19:04:08.788Z,99554.00
2022-11-17T19:06:36.496Z,99544.00
2022-11-17T19:09:06.653Z,99545.00
2022-11-17T19:11:34.654Z,99549.00
2022-11-17T19:14:04.271Z,99541.00
2022-11-17T19:16:32.615Z,99493.00
2022-11-17T19:19:00.091Z,99547.00
2022-11-17T19:21:35.949Z,99536.00
2022-11-17T19:24:04.520Z,99534.00
2022-11-17T19:26:35.797Z,99537.00
2022-11-17T19:29:15.679Z,99539.00
2022-11-17T19:31:43.907Z,99532.00
2022-11-17T19:34:11.385Z,99539.00
2022-11-17T19:36:38.403Z,99536.00
2022-11-17T19:39:05.413Z,99545.00
2022-11-17T19:41:45.143Z,99534.00
2022-11-17T19:44:12.449Z,99528.00
2022-11-17T19:46:39.501Z,99532.00
2022-11-17T19:49:08.139Z,99524.00
2022-11-17T19:51:37.067Z,99539.00
2022-11-17T19:54:09.469Z,99546.00
2022-11-17T19:56:38.311Z,99527.00
2022-11-17T19:59:07.659Z,99525.00
2022-11-17T20:01:36.854Z,99534.00
2022-11-17T20:04:04.600Z,99539.00
2022-11-17T20:06:37.586Z,99535.00
2022-11-17T20:09:09.533Z,99546.00
2022-11-17T20:11:36.944Z,99548.00
2022-11-17T20:14:04.385Z,99555.00
2022-11-17T20:16:32.257Z,99549.00
2022-11-17T20:19:02.906Z,99553.00
2022-11-17T20:21:31.189Z,99549.00
2022-11-17T20:23:59.211Z,99560.00
2022-11-17T20:26:30.877Z,99560.00
2022-11-17T20:28:59.535Z,99557.00
2022-11-17T20:31:32.876Z,99553.00
2022-11-17T20:34:01.659Z,99549.00
2022-11-17T20:36:31.653Z,99564.00
2022-11-17T20:39:03.104Z,99555.00
2022-11-17T20:41:30.826Z,99540.00
2022-11-17T20:44:00.201Z,99544.00
2022-11-17T20:46:27.571Z,99538.00
2022-11-17T20:48:54.694Z,99529.00
2022-11-17T20:51:24.466Z,99526.00
2022-11-17T20:53:53.678Z,99526.00
2022-11-17T20:56:21.187Z,99492.00
2022-11-17T20:58:49.013Z,99512.00
2022-11-17T21:01:22.587Z,99512.00
2022-11-17T21:03:49.959Z,99513.00
2022-11-17T21:06:18.039Z,99501.00
2022-11-17T21:08:46.591Z,99494.00
2022-11-17T21:11:35.743Z,99483.00
2022-11-17T21:14:05.551Z,99468.00
2022-11-17T21:16:34.236Z,99478.00
2022-11-17T21:19:01.478Z,99476.00
2022-11-17T21:21:28.695Z,99486.00
2022-11-17T21:23:56.229Z,99486.00
2022-11-17T21:26:23.702Z,99481.00
2022-11-17T21:28:54.075Z,99453.00
2022-11-17T21:31:24.869Z,99487.00
2022-11-17T21:33:57.967Z,99471.00
2022-11-17T21:36:27.434Z,99475.00
2022-11-17T21:38:54.963Z,99484.00
2022-11-17T21:41:28.660Z,99476.00
2022-11-17T21:44:00.060Z,99477.00
2022-11-17T21:46:31.110Z,99488.00
2022-11-17T21:48:59.769Z,99475.00
2022-11-17T21:51:33.487Z,99443.00
2022-11-17T21:54:04.403Z,99485.00
2022-11-17T21:56:32.234Z,99484.00
2022-11-17T21:59:06.454Z,99484.00
2022-11-17T22:01:34.894Z,99479.00
2022-11-17T22:04:02.293Z,99478.00
2022-11-17T22:06:30.329Z,99458.00
2022-11-17T22:08:59.076Z,99478.00
2022-11-17T22:11:36.138Z,99478.00
2022-11-17T22:14:20.074Z,99470.00
2022-11-17T22:16:53.248Z,99470.00
2022-11-17T22:19:24.417Z,99468.00
2022-11-17T22:21:54.285Z,99441.00
2022-11-17T22:24:21.719Z,99465.00
2022-11-17T22:26:48.925Z,99461.00
2022-11-17T22:29:19.973Z,99457.00
2022-11-17T22:31:48.926Z,99453.00
2022-11-17T22:34:17.423Z,99463.00
2022-11-17T22:36:44.431Z,99457.00
2022-11-17T22:39:11.432Z,99435.00
2022-11-17T22:41:38.516Z,99464.00
2022-11-17T22:44:06.369Z,99467.00
2022-11-17T22:46:34.965Z,99455.00
2022-11-17T22:49:02.068Z,99448.00
2022-11-17T22:51:47.691Z,99459.00
2022-11-17T22:54:14.794Z,99451.00
2022-11-17T22:56:41.811Z,99456.00
2022-11-17T22:59:09.649Z,99465.00
2022-11-17T23:01:36.740Z,99446.00
2022-11-17T23:04:04.746Z,99442.00
2022-11-17T23:06:31.795Z,99469.00
2022-11-17T23:08:59.140Z,99468.00
2022-11-17T23:11:37.888Z,99469.00
2022-11-17T23:14:12.186Z,99471.00
2022-11-17T23:16:40.157Z,99464.00
2022-11-17T23:19:10.271Z,99472.00
2022-11-17T23:21:37.338Z,99470.00
2022-11-17T23:24:05.040Z,99465.00
2022-11-17T23:26:32.042Z,99475.00
2022-11-17T23:28:59.112Z,99475.00
2022-11-17T23:31:27.898Z,99449.00
2022-11-17T23:33:55.060Z,99464.00
2022-11-17T23:36:23.183Z,99454.00
2022-11-17T23:38:51.595Z,99467.00
2022-11-17T23:41:22.884Z,99468.00
2022-11-17T23:43:52.417Z,99471.00
2022-11-17T23:46:23.749Z,99463.00
2022-11-17T23:48:51.027Z,99453.00
2022-11-17T23:51:23.674Z,99461.00
2022-11-17T23:53:51.245Z,99446.00
2022-11-17T23:56:20.654Z,99450.00
2022-11-17T23:58:48.323Z,99450.00
